FSIA/SEZ METAR and TAF weather

Enter ICAO airport designator
Station Type Date Time Source
FSIA METAR 2018/04/20 08:00 UTC NOAA

FSIA 200800Z VRB05G15KT 9999 R13///// -SHRA FEW017CB BKN022 26/24 Q1010


Station Type Date Time Source
FSIA Decoded METAR 2018/04/20 08:00 UTC NOAA

Seychelles Inter-National Airport, Seychelles (FSIA) 04-40S 055-31E 3M
Apr 20, 2018 - 04:00 AM EDT / 2018.04.20 0800 UTC
Wind: Variable at 6 MPH (5 KT) gusting to 17 MPH (15 KT):0
Visibility: greater than 7 mile(s):0
Sky conditions: mostly cloudy
Weather: light rain showers; Cumulonimbus clouds observed
Temperature: 78 F (26 C)
Dew Point: 75 F (24 C)
Relative Humidity: 88%
Pressure (altimeter): 29.83 in. Hg (1010 hPa)
ob: FSIA 200800Z VRB05G15KT 9999 R13///// -SHRA FEW017CB BKN022 26/24 Q1010
cycle: 8

Station Type Date Time Source
FSIA TAF 2018/04/20 06:13 UTC NOAA

TAF FSIA 200502Z 2006/2106 30010KT 9999 FEW018CB SCT025
TEMPO 2008/2016 -SHRA FEW014CB BKN016 PROB40
TEMPO 2010/2012 8000 SHRA FEW007 BKN016


Example: see airport list